Time;durP1;ratioP1;P1;durP2;ratioP2;P2;SDS_P1;SDS_P2;PMS_P1;PMS_P2;Temp;Humidity;BMP_temperature;BMP_pressure;BME280_temperature;BME280_humidity;BME280_pressure;Samples;Min_cycle;Max_cycle;Signal;HPM_P1;HPM_P2
2020/12/29 00:00:37;;;;;;;20.30;18.73;;;0.40;99.90;;;;;;5120994;27;20571;-75
2020/12/29 00:03:04;;;;;;;19.57;18.20;;;0.50;99.90;;;;;;5122156;28;20712;-75
2020/12/29 00:05:30;;;;;;;21.63;19.60;;;0.40;99.90;;;;;;5120380;28;20461;-75
2020/12/29 00:07:57;;;;;;;22.37;20.37;;;0.50;99.90;;;;;;5122514;28;20457;-74
2020/12/29 00:10:24;;;;;;;20.23;18.47;;;0.50;99.90;;;;;;5122306;28;20471;-76
2020/12/29 00:12:51;;;;;;;20.13;18.53;;;0.50;99.90;;;;;;5117222;28;20461;-74
2020/12/29 00:15:17;;;;;;;20.73;18.37;;;0.40;99.90;;;;;;5119278;27;20820;-77
2020/12/29 00:17:46;;;;;;;20.30;18.60;;;0.30;99.90;;;;;;5122765;28;20459;-74
2020/12/29 00:20:12;;;;;;;21.00;18.97;;;0.30;99.90;;;;;;5124708;28;20471;-74
2020/12/29 00:22:38;;;;;;;21.13;19.40;;;0.30;99.90;;;;;;5119176;28;20468;-78
2020/12/29 00:25:05;;;;;;;31.93;19.97;;;0.30;99.90;;;;;;5117271;28;20453;-76
2020/12/29 00:27:33;;;;;;;21.30;19.33;;;0.30;99.90;;;;;;5120697;28;20514;-74
2020/12/29 00:29:59;;;;;;;20.70;18.90;;;0.30;99.90;;;;;;5116972;27;21004;-75
2020/12/29 00:32:26;;;;;;;24.80;19.10;;;0.20;99.90;;;;;;5123958;27;20455;-74
2020/12/29 00:34:53;;;;;;;25.70;18.67;;;0.20;99.90;;;;;;5119610;27;20463;-77
2020/12/29 00:37:19;;;;;;;20.00;18.20;;;0.10;99.90;;;;;;5124394;27;20662;-75
2020/12/29 00:39:45;;;;;;;21.30;18.63;;;0.00;99.90;;;;;;5115556;27;20494;-75
2020/12/29 00:42:12;;;;;;;19.63;18.13;;;0.00;99.90;;;;;;5125918;27;20463;-74
2020/12/29 00:44:39;;;;;;;19.70;18.10;;;0.00;99.90;;;;;;5128714;27;20455;-72
2020/12/29 00:47:07;;;;;;;21.20;19.27;;;0.00;99.90;;;;;;5125938;27;20487;-78
2020/12/29 00:49:38;;;;;;;21.23;19.03;;;0.10;99.90;;;;;;5124224;27;20632;-76
2020/12/29 00:52:05;;;;;;;23.23;18.50;;;0.20;99.90;;;;;;5127530;27;20460;-74
2020/12/29 00:54:33;;;;;;;21.63;19.30;;;0.20;99.90;;;;;;5123840;27;20465;-76
2020/12/29 00:57:00;;;;;;;19.83;18.33;;;0.10;99.90;;;;;;5127712;27;20522;-73
2020/12/29 00:59:26;;;;;;;19.70;17.90;;;0.10;99.90;;;;;;5121864;27;20496;-74
2020/12/29 01:01:56;;;;;;;21.63;19.43;;;0.20;99.90;;;;;;5119566;27;20474;-75
2020/12/29 01:04:23;;;;;;;22.17;20.10;;;0.20;99.90;;;;;;5124223;27;20451;-72
2020/12/29 01:06:49;;;;;;;22.37;19.80;;;0.20;99.90;;;;;;5116937;27;20826;-73
2020/12/29 01:09:17;;;;;;;20.23;18.73;;;0.10;99.90;;;;;;5126031;27;20466;-77
2020/12/29 01:11:44;;;;;;;20.80;19.00;;;0.10;99.90;;;;;;5121216;27;20458;-74
2020/12/29 01:14:10;;;;;;;20.73;18.83;;;-0.10;99.90;;;;;;5119100;27;20478;-76
2020/12/29 01:16:37;;;;;;;20.57;18.60;;;-0.10;99.90;;;;;;5124206;27;20488;-75
2020/12/29 01:19:04;;;;;;;21.10;18.30;;;-0.30;99.90;;;;;;5124174;27;20478;-74
2020/12/29 01:21:30;;;;;;;19.40;17.80;;;-0.30;99.90;;;;;;5124033;27;20997;-74
2020/12/29 01:23:57;;;;;;;19.87;18.37;;;-0.40;99.90;;;;;;5124930;27;20914;-76
2020/12/29 01:26:24;;;;;;;19.73;18.10;;;-0.40;99.90;;;;;;5120820;27;20833;-77
2020/12/29 01:28:51;;;;;;;20.00;18.30;;;-0.40;99.90;;;;;;5125225;27;20462;-77
2020/12/29 01:31:25;;;;;;;19.93;18.33;;;-0.30;99.90;;;;;;5118711;27;20459;-75
2020/12/29 01:33:53;;;;;;;20.73;19.07;;;-0.30;99.90;;;;;;5122604;27;20974;-75
2020/12/29 01:36:20;;;;;;;20.63;18.90;;;-0.10;99.90;;;;;;5115443;27;20456;-76
2020/12/29 01:38:47;;;;;;;21.10;18.83;;;0.00;99.90;;;;;;5119860;27;20857;-75
2020/12/29 01:41:14;;;;;;;20.93;19.30;;;0.00;99.90;;;;;;5120244;27;21015;-76
2020/12/29 01:43:42;;;;;;;20.27;18.37;;;0.10;99.90;;;;;;5124454;27;20462;-75
2020/12/29 01:46:08;;;;;;;20.97;19.50;;;0.10;99.90;;;;;;5127492;27;20499;-74
2020/12/29 01:48:34;;;;;;;21.20;19.53;;;0.20;99.90;;;;;;5125490;27;20855;-77
2020/12/29 01:51:00;;;;;;;20.87;19.23;;;0.20;99.90;;;;;;5121725;27;20462;-77
2020/12/29 01:53:27;;;;;;;21.83;20.13;;;0.20;99.90;;;;;;5121847;27;20968;-76
2020/12/29 01:55:54;;;;;;;255.73;99.00;;;0.30;99.90;;;;;;5122065;27;20993;-74
2020/12/29 01:58:20;;;;;;;642.17;253.70;;;0.40;99.90;;;;;;5125095;27;20485;-74
2020/12/29 02:00:47;;;;;;;39.30;27.40;;;0.50;99.90;;;;;;5123152;27;20954;-77
2020/12/29 02:03:16;;;;;;;22.67;19.70;;;0.60;99.90;;;;;;5120653;27;20997;-77
2020/12/29 02:05:45;;;;;;;22.90;20.97;;;0.60;99.90;;;;;;5122599;27;20488;-76
2020/12/29 02:08:12;;;;;;;21.57;19.83;;;0.70;99.90;;;;;;5118360;27;20998;-77
2020/12/29 02:10:41;;;;;;;22.37;20.03;;;0.60;99.90;;;;;;5123128;27;20463;-74
2020/12/29 02:13:08;;;;;;;22.03;19.90;;;0.60;99.90;;;;;;5119893;27;20551;-77
2020/12/29 02:15:35;;;;;;;20.77;19.20;;;0.60;99.90;;;;;;5127350;27;20732;-75
2020/12/29 02:18:02;;;;;;;20.90;19.30;;;0.50;99.90;;;;;;5121790;27;20778;-78
2020/12/29 02:20:28;;;;;;;21.37;19.63;;;0.60;99.90;;;;;;5113912;27;20804;-75
2020/12/29 02:22:55;;;;;;;20.80;19.10;;;0.60;99.90;;;;;;5123772;27;20459;-75
2020/12/29 02:25:22;;;;;;;22.00;19.90;;;0.60;99.90;;;;;;5123401;27;20475;-75
2020/12/29 02:27:49;;;;;;;23.73;21.70;;;0.60;99.90;;;;;;5122225;27;20529;-78
2020/12/29 02:30:17;;;;;;;21.53;19.63;;;0.70;99.90;;;;;;5113259;27;20459;-75
2020/12/29 02:32:44;;;;;;;21.53;19.80;;;0.70;99.90;;;;;;5123697;27;20990;-78
2020/12/29 02:35:14;;;;;;;21.20;19.60;;;0.80;99.90;;;;;;5114731;27;20459;-75
2020/12/29 02:37:41;;;;;;;23.10;19.20;;;0.70;99.90;;;;;;5125634;27;20503;-74
2020/12/29 02:40:08;;;;;;;22.10;20.20;;;0.70;99.90;;;;;;5122546;27;20498;-74
2020/12/29 02:42:34;;;;;;;21.87;19.97;;;0.70;99.90;;;;;;5120284;27;20942;-75
2020/12/29 02:45:01;;;;;;;24.27;21.33;;;0.70;99.90;;;;;;5122172;27;20780;-76
2020/12/29 02:47:28;;;;;;;25.70;21.57;;;0.80;99.90;;;;;;5121411;27;20457;-77
2020/12/29 02:49:55;;;;;;;23.17;21.00;;;0.90;99.90;;;;;;5122486;27;20582;-75
2020/12/29 02:52:22;;;;;;;23.10;21.50;;;0.90;99.90;;;;;;5121367;27;20471;-73
2020/12/29 02:54:48;;;;;;;22.43;20.70;;;0.90;99.90;;;;;;5118514;27;20454;-77
2020/12/29 02:57:15;;;;;;;23.10;21.37;;;0.80;99.90;;;;;;5122155;27;20539;-79
2020/12/29 02:59:41;;;;;;;22.93;20.93;;;0.90;99.90;;;;;;5119624;27;20937;-77
2020/12/29 03:02:07;;;;;;;23.10;21.30;;;0.80;99.90;;;;;;5126362;27;20468;-76
2020/12/29 03:04:34;;;;;;;23.30;21.30;;;0.70;99.90;;;;;;5115963;27;20463;-75
2020/12/29 03:07:01;;;;;;;22.67;20.57;;;0.70;99.90;;;;;;5122606;27;20929;-77
2020/12/29 03:09:27;;;;;;;23.17;21.00;;;0.70;99.90;;;;;;5123155;27;20543;-76
2020/12/29 03:11:53;;;;;;;23.60;21.47;;;0.70;99.90;;;;;;5125648;27;20458;-75
2020/12/29 03:14:20;;;;;;;25.20;22.20;;;0.70;99.90;;;;;;5120501;27;20459;-77
2020/12/29 03:16:47;;;;;;;27.67;25.17;;;0.80;99.90;;;;;;5124810;27;20468;-76
2020/12/29 03:19:14;;;;;;;37.57;27.77;;;0.80;99.90;;;;;;5120226;27;20497;-78
2020/12/29 03:21:40;;;;;;;78.17;43.87;;;0.90;99.90;;;;;;5122339;27;20492;-77
2020/12/29 03:24:09;;;;;;;25.17;23.00;;;0.90;99.90;;;;;;5121621;27;20468;-74
2020/12/29 03:26:36;;;;;;;23.50;21.47;;;0.80;99.90;;;;;;5123002;27;20469;-78
2020/12/29 03:29:02;;;;;;;22.50;20.60;;;0.80;99.90;;;;;;5122683;27;20449;-78
2020/12/29 03:31:29;;;;;;;32.63;21.90;;;0.80;99.90;;;;;;5117862;27;20457;-77
2020/12/29 03:33:55;;;;;;;24.90;22.57;;;0.70;99.90;;;;;;5119462;27;20461;-77
2020/12/29 03:36:22;;;;;;;23.07;21.17;;;0.60;99.90;;;;;;5122695;27;20499;-76
2020/12/29 03:38:48;;;;;;;22.70;20.63;;;0.60;99.90;;;;;;5119722;27;20486;-77
2020/12/29 03:41:16;;;;;;;23.13;20.80;;;0.60;99.90;;;;;;5117402;27;20484;-74
2020/12/29 03:43:42;;;;;;;23.93;21.70;;;0.50;99.90;;;;;;5122382;27;20460;-76
2020/12/29 03:46:08;;;;;;;23.07;20.40;;;0.50;99.90;;;;;;5119403;27;20961;-78
2020/12/29 03:48:35;;;;;;;23.70;21.20;;;0.40;99.90;;;;;;5123711;28;20958;-76
2020/12/29 03:51:02;;;;;;;23.43;21.23;;;0.30;99.90;;;;;;5120480;28;20474;-75
2020/12/29 03:53:29;;;;;;;22.57;20.60;;;0.20;99.90;;;;;;5116736;28;20484;-75
2020/12/29 03:55:55;;;;;;;22.33;20.60;;;0.20;99.90;;;;;;5117423;28;20458;-75
2020/12/29 03:58:21;;;;;;;22.27;20.37;;;0.10;99.90;;;;;;5119723;28;20498;-79
2020/12/29 04:00:50;;;;;;;25.90;21.30;;;0.00;99.90;;;;;;5116572;27;20496;-77
2020/12/29 04:03:17;;;;;;;74.20;51.23;;;-0.10;99.90;;;;;;5123920;28;20513;-79
2020/12/29 04:05:45;;;;;;;34.83;29.10;;;-0.10;99.90;;;;;;5125121;27;20674;-78
2020/12/29 04:08:12;;;;;;;81.90;57.13;;;-0.10;99.90;;;;;;5118547;27;21006;-77
2020/12/29 04:10:39;;;;;;;28.00;25.10;;;-0.10;99.90;;;;;;5129091;27;20971;-78
2020/12/29 04:13:05;;;;;;;23.20;21.17;;;-0.10;99.90;;;;;;5124616;27;20855;-78
2020/12/29 04:15:32;;;;;;;30.07;26.87;;;-0.10;99.90;;;;;;5124540;27;20464;-78
2020/12/29 04:17:59;;;;;;;22.90;21.00;;;-0.20;99.90;;;;;;5129089;27;21060;-80
2020/12/29 04:20:26;;;;;;;31.77;24.53;;;-0.20;99.90;;;;;;5129052;27;20491;-76
2020/12/29 04:22:53;;;;;;;34.43;28.30;;;-0.30;99.90;;;;;;5126989;27;20458;-79
2020/12/29 04:25:19;;;;;;;30.60;27.60;;;-0.30;99.90;;;;;;5122033;27;20467;-76
2020/12/29 04:27:45;;;;;;;27.93;23.17;;;-0.40;99.90;;;;;;5123644;27;20463;-80
2020/12/29 04:30:12;;;;;;;27.00;23.53;;;-0.50;99.90;;;;;;5127934;27;20454;-77
2020/12/29 04:32:40;;;;;;;24.53;22.03;;;-0.60;99.90;;;;;;5128970;27;20470;-77
2020/12/29 04:35:08;;;;;;;25.70;21.37;;;-0.70;99.90;;;;;;5121281;27;20492;-76
2020/12/29 04:37:34;;;;;;;23.17;21.00;;;-0.70;99.90;;;;;;5126741;27;20528;-77
2020/12/29 04:40:03;;;;;;;22.93;21.03;;;-0.80;99.90;;;;;;5122085;27;20498;-77
2020/12/29 04:42:29;;;;;;;21.57;19.57;;;-0.80;99.90;;;;;;5123807;27;20506;-76
2020/12/29 04:44:56;;;;;;;20.73;19.23;;;-0.90;99.90;;;;;;5118199;27;20459;-76
2020/12/29 04:47:28;;;;;;;20.47;18.77;;;-1.00;99.90;;;;;;5128433;27;20495;-79
2020/12/29 04:49:55;;;;;;;21.47;19.77;;;-1.00;99.90;;;;;;5128777;27;20455;-77
2020/12/29 04:52:22;;;;;;;22.13;20.20;;;-1.10;99.90;;;;;;5124694;27;20459;-77
2020/12/29 04:54:52;;;;;;;22.63;20.73;;;-1.10;99.90;;;;;;5124149;27;20465;-75
2020/12/29 04:57:19;;;;;;;22.40;20.20;;;-1.00;99.90;;;;;;5121255;27;20988;-77
2020/12/29 04:59:46;;;;;;;23.10;20.87;;;-1.00;99.90;;;;;;5122812;27;20479;-80
2020/12/29 05:02:12;;;;;;;25.33;21.80;;;-1.00;99.90;;;;;;5124680;27;20959;-77
2020/12/29 05:04:39;;;;;;;23.43;21.30;;;-0.90;99.90;;;;;;5117571;27;20471;-77
2020/12/29 05:07:05;;;;;;;26.13;23.50;;;-0.80;99.90;;;;;;5116796;27;20466;-79
2020/12/29 05:09:33;;;;;;;25.53;22.77;;;-0.80;99.90;;;;;;5117023;27;20456;-76
2020/12/29 05:12:00;;;;;;;24.43;22.23;;;-0.80;99.90;;;;;;5122456;27;20658;-79
2020/12/29 05:14:28;;;;;;;22.70;20.60;;;-0.80;99.90;;;;;;5121779;27;20467;-76
2020/12/29 05:16:55;;;;;;;24.57;22.03;;;-0.80;99.90;;;;;;5130330;27;20451;-76
2020/12/29 05:19:22;;;;;;;24.37;22.10;;;-0.80;99.90;;;;;;5123562;27;20498;-77
2020/12/29 05:21:49;;;;;;;23.30;21.30;;;-0.90;99.90;;;;;;5118268;27;20459;-75
2020/12/29 05:24:18;;;;;;;24.10;21.80;;;-0.90;99.90;;;;;;5120741;27;20452;-74
2020/12/29 05:26:46;;;;;;;24.07;21.67;;;-0.90;99.90;;;;;;5123839;27;20466;-78
2020/12/29 05:29:13;;;;;;;23.57;21.50;;;-0.80;99.90;;;;;;5121024;27;20975;-77
2020/12/29 05:31:42;;;;;;;22.80;20.83;;;-0.80;99.90;;;;;;5126817;27;20489;-77
2020/12/29 05:34:17;;;;;;;23.67;21.57;;;-0.80;99.90;;;;;;5122777;27;20463;-78
2020/12/29 05:36:45;;;;;;;24.57;22.07;;;-0.70;99.90;;;;;;5131429;27;20496;-79
2020/12/29 05:39:12;;;;;;;22.63;20.67;;;-0.60;99.90;;;;;;5123804;27;20828;-76
2020/12/29 05:41:40;;;;;;;25.33;23.10;;;-0.60;99.90;;;;;;5121902;27;20867;-76
2020/12/29 05:44:07;;;;;;;23.43;21.53;;;-0.70;99.90;;;;;;5124066;27;20854;-75
2020/12/29 05:46:34;;;;;;;24.20;21.90;;;-0.70;99.90;;;;;;5122273;27;20969;-77
2020/12/29 05:49:05;;;;;;;25.00;22.67;;;-0.80;99.90;;;;;;5121914;27;20786;-77
2020/12/29 05:51:33;;;;;;;32.13;25.73;;;-0.80;99.90;;;;;;5126904;27;20474;-78
2020/12/29 05:54:01;;;;;;;25.17;22.90;;;-0.70;99.90;;;;;;5121491;27;20811;-76
2020/12/29 05:56:30;;;;;;;26.60;24.00;;;-0.60;99.90;;;;;;5121972;27;20457;-75
2020/12/29 05:58:58;;;;;;;27.50;25.00;;;-0.60;99.90;;;;;;5123645;27;20487;-77
2020/12/29 06:01:35;;;;;;;26.17;23.60;;;-0.50;99.90;;;;;;5125171;27;20464;-77
2020/12/29 06:04:04;;;;;;;26.10;23.27;;;-0.40;99.90;;;;;;5122755;27;20464;-75
2020/12/29 06:06:33;;;;;;;24.90;22.43;;;-0.40;99.90;;;;;;5126279;27;20520;-77
2020/12/29 06:09:04;;;;;;;25.37;23.13;;;-0.30;99.90;;;;;;5123962;27;20462;-75
2020/12/29 06:11:38;;;;;;;25.93;23.33;;;-0.30;99.90;;;;;;5122552;27;20463;-76
2020/12/29 06:14:13;;;;;;;26.40;23.70;;;-0.20;99.90;;;;;;5123570;27;20531;-77
2020/12/29 06:16:41;;;;;;;26.10;22.50;;;-0.10;99.90;;;;;;5127800;27;20453;-76
2020/12/29 06:19:31;;;;;;;25.87;23.43;;;0.00;99.90;;;;;;5121586;27;20490;-75
2020/12/29 06:22:08;;;;;;;25.40;23.00;;;0.00;99.90;;;;;;5113234;27;20970;-74
2020/12/29 06:24:36;;;;;;;25.37;22.57;;;0.00;99.90;;;;;;5122425;27;20467;-78
2020/12/29 06:27:04;;;;;;;24.60;22.33;;;-0.10;99.90;;;;;;5122034;27;20474;-76
2020/12/29 06:29:36;;;;;;;24.53;22.00;;;-0.20;99.90;;;;;;5124584;27;20460;-76
2020/12/29 06:32:10;;;;;;;23.70;21.40;;;-0.20;99.90;;;;;;5127781;27;20460;-74
2020/12/29 06:34:38;;;;;;;26.10;23.70;;;-0.20;99.90;;;;;;5122626;27;20504;-77
2020/12/29 06:37:37;;;;;;;25.53;23.20;;;-0.30;99.90;;;;;;5117833;27;20863;-74
2020/12/29 06:40:05;;;;;;;24.67;22.33;;;-0.40;99.90;;;;;;5101086;27;20524;-75
2020/12/29 06:42:33;;;;;;;25.67;23.30;;;-0.40;99.90;;;;;;5121041;27;20460;-74
2020/12/29 06:45:05;;;;;;;25.87;23.57;;;-0.30;99.90;;;;;;5118461;27;20914;-75
2020/12/29 06:47:31;;;;;;;27.77;25.07;;;-0.30;99.90;;;;;;5125360;27;20464;-75
2020/12/29 06:49:58;;;;;;;25.97;23.57;;;-0.30;99.90;;;;;;5124470;27;20502;-74
2020/12/29 06:52:33;;;;;;;26.87;24.20;;;-0.30;99.90;;;;;;5121440;27;20462;-75
2020/12/29 06:55:00;;;;;;;27.90;24.73;;;-0.30;99.90;;;;;;5123256;27;20458;-76
2020/12/29 06:57:47;;;;;;;26.40;23.70;;;-0.10;99.90;;;;;;5119854;27;20656;-77
2020/12/29 07:00:18;;;;;;;27.03;24.43;;;0.00;99.90;;;;;;5124764;27;20838;-75
2020/12/29 07:02:47;;;;;;;26.63;24.03;;;0.10;99.90;;;;;;5120478;27;20471;-75
2020/12/29 07:05:15;;;;;;;27.80;25.20;;;0.20;99.90;;;;;;5117161;27;21164;-74
2020/12/29 07:08:00;;;;;;;26.60;24.13;;;0.20;99.90;;;;;;5120408;27;20478;-74
2020/12/29 07:10:33;;;;;;;26.17;23.60;;;0.20;99.90;;;;;;5126553;27;20986;-74
2020/12/29 07:13:05;;;;;;;25.40;23.00;;;0.10;99.90;;;;;;5125323;27;20482;-74
2020/12/29 07:15:33;;;;;;;26.87;24.13;;;0.10;99.90;;;;;;5126017;27;20486;-77
2020/12/29 07:18:01;;;;;;;25.80;23.10;;;0.00;99.90;;;;;;5123224;27;20492;-76
2020/12/29 07:20:32;;;;;;;28.10;23.83;;;-0.10;99.90;;;;;;5122344;27;21382;-75
2020/12/29 07:23:04;;;;;;;26.83;24.13;;;0.10;99.90;;;;;;5124346;27;20475;-75
2020/12/29 07:25:33;;;;;;;27.90;25.10;;;0.20;99.90;;;;;;5122954;27;20574;-77
2020/12/29 07:28:02;;;;;;;28.10;25.20;;;0.30;99.90;;;;;;5118418;27;20472;-77
2020/12/29 07:30:31;;;;;;;28.27;25.47;;;0.40;99.90;;;;;;5120608;27;20456;-74
2020/12/29 07:32:59;;;;;;;33.93;25.57;;;0.40;99.90;;;;;;5123167;27;20986;-77
2020/12/29 07:35:28;;;;;;;26.67;23.97;;;0.40;99.90;;;;;;5119838;27;20460;-75
2020/12/29 07:37:57;;;;;;;25.63;23.13;;;0.40;99.90;;;;;;5123043;27;20488;-75
2020/12/29 07:40:25;;;;;;;27.70;24.50;;;0.20;99.90;;;;;;5115600;28;20500;-76
2020/12/29 07:42:51;;;;;;;27.30;23.77;;;0.30;99.90;;;;;;5118135;27;20971;-76
2020/12/29 07:45:18;;;;;;;28.30;25.03;;;0.30;99.90;;;;;;5121777;27;20983;-73
2020/12/29 07:47:44;;;;;;;26.33;23.50;;;0.30;99.90;;;;;;5124402;27;20833;-75
2020/12/29 07:50:10;;;;;;;25.43;23.00;;;0.30;99.90;;;;;;5116249;28;20475;-76
2020/12/29 07:52:37;;;;;;;30.50;22.80;;;0.30;99.90;;;;;;5114890;28;20464;-72
2020/12/29 07:55:08;;;;;;;25.00;22.50;;;0.40;99.90;;;;;;5121297;28;20825;-74
2020/12/29 07:57:36;;;;;;;36.67;25.77;;;0.40;99.90;;;;;;5115804;28;20452;-73
2020/12/29 08:00:16;;;;;;;37.30;26.53;;;0.50;99.90;;;;;;5119201;27;20494;-75
2020/12/29 08:02:51;;;;;;;29.40;24.40;;;0.50;99.90;;;;;;5118659;28;20810;-74
2020/12/29 08:05:21;;;;;;;33.23;26.03;;;0.50;99.90;;;;;;5117791;28;20467;-75
2020/12/29 08:07:57;;;;;;;29.07;25.00;;;0.50;99.90;;;;;;5117374;28;20460;-73
2020/12/29 08:10:26;;;;;;;28.63;24.07;;;0.50;99.90;;;;;;5114237;28;20493;-77
2020/12/29 08:12:53;;;;;;;28.37;24.17;;;0.50;99.90;;;;;;5109078;28;20459;-78
2020/12/29 08:15:27;;;;;;;27.20;24.13;;;0.60;99.90;;;;;;5114698;27;20974;-78
2020/12/29 08:18:04;;;;;;;31.53;26.17;;;0.60;99.90;;;;;;5120733;28;20763;-74
2020/12/29 08:20:32;;;;;;;31.23;26.17;;;0.70;99.90;;;;;;5120087;28;20502;-75
2020/12/29 08:23:03;;;;;;;29.67;26.57;;;0.70;99.90;;;;;;5120173;28;20840;-75
2020/12/29 08:25:31;;;;;;;28.77;25.50;;;0.80;99.90;;;;;;5124306;28;20829;-74
2020/12/29 08:28:00;;;;;;;29.90;26.67;;;0.80;99.90;;;;;;5122033;28;20460;-75
2020/12/29 08:30:27;;;;;;;49.17;30.40;;;0.90;99.90;;;;;;5119743;27;20468;-75
2020/12/29 08:32:55;;;;;;;34.27;28.17;;;1.00;99.90;;;;;;5121943;28;20461;-73
2020/12/29 08:35:23;;;;;;;31.77;27.03;;;1.10;99.90;;;;;;5123547;28;20465;-75
2020/12/29 08:38:02;;;;;;;32.47;29.07;;;1.10;99.90;;;;;;5116462;28;20505;-75
2020/12/29 08:40:32;;;;;;;32.37;28.90;;;1.10;99.90;;;;;;5117935;28;20480;-76
2020/12/29 08:43:00;;;;;;;29.77;26.30;;;1.10;99.90;;;;;;5120066;28;20492;-75
2020/12/29 08:45:30;;;;;;;40.10;26.20;;;1.10;99.90;;;;;;5124208;27;20969;-75
2020/12/29 08:47:59;;;;;;;31.03;27.80;;;1.10;99.90;;;;;;5119560;27;20595;-75
2020/12/29 08:50:28;;;;;;;29.40;26.30;;;1.20;99.90;;;;;;5115020;28;20545;-75
2020/12/29 08:53:03;;;;;;;27.40;24.50;;;1.20;99.90;;;;;;5119150;27;20986;-76
2020/12/29 08:55:31;;;;;;;26.73;24.43;;;1.30;99.90;;;;;;5119207;27;20748;-75
2020/12/29 08:57:59;;;;;;;31.33;28.10;;;1.40;99.90;;;;;;5117167;27;20460;-78
2020/12/29 09:00:27;;;;;;;32.90;29.53;;;1.50;99.90;;;;;;5127027;27;20495;-78
2020/12/29 09:02:54;;;;;;;29.83;26.63;;;1.50;99.90;;;;;;5126134;27;20487;-77
2020/12/29 09:05:24;;;;;;;34.20;30.30;;;1.60;99.90;;;;;;5122349;27;20466;-75
2020/12/29 09:07:51;;;;;;;32.17;29.00;;;1.70;99.90;;;;;;5121750;27;20948;-76
2020/12/29 09:10:18;;;;;;;33.53;28.83;;;1.80;99.90;;;;;;5122594;27;20928;-75
2020/12/29 09:12:46;;;;;;;36.60;29.03;;;1.80;99.90;;;;;;5120369;27;20472;-74
2020/12/29 09:15:16;;;;;;;35.43;27.93;;;1.80;99.90;;;;;;5121288;27;20461;-77
2020/12/29 09:17:46;;;;;;;39.87;29.50;;;1.90;99.90;;;;;;5123048;27;20460;-74
2020/12/29 09:20:19;;;;;;;32.13;27.10;;;1.90;99.90;;;;;;5124609;27;20975;-78
2020/12/29 09:22:53;;;;;;;35.83;29.73;;;1.90;99.90;;;;;;5124166;27;20456;-77
2020/12/29 09:25:25;;;;;;;36.53;28.10;;;2.00;99.90;;;;;;5123758;27;20462;-76
2020/12/29 09:28:10;;;;;;;38.37;30.13;;;2.00;99.90;;;;;;5125783;27;20460;-77
2020/12/29 09:30:38;;;;;;;33.50;29.20;;;2.10;99.90;;;;;;5130233;27;20458;-79
2020/12/29 09:33:05;;;;;;;36.83;29.90;;;2.10;99.90;;;;;;5125565;27;20501;-75
2020/12/29 09:35:32;;;;;;;33.63;30.07;;;2.20;99.90;;;;;;5120873;27;20459;-74
2020/12/29 09:38:01;;;;;;;35.33;27.63;;;2.20;99.90;;;;;;5123030;27;20487;-77
2020/12/29 09:40:28;;;;;;;33.03;29.90;;;2.20;99.90;;;;;;5125666;27;20500;-76
2020/12/29 09:42:54;;;;;;;35.53;31.83;;;2.30;99.90;;;;;;5124266;27;20460;-77
2020/12/29 09:45:23;;;;;;;30.60;26.17;;;2.40;99.90;;;;;;5122782;27;20972;-78
2020/12/29 09:47:53;;;;;;;39.37;33.47;;;2.40;99.90;;;;;;5121876;27;20469;-77
2020/12/29 09:50:20;;;;;;;40.30;30.77;;;2.50;99.90;;;;;;5125945;27;20484;-78
2020/12/29 09:52:46;;;;;;;43.67;32.00;;;2.60;99.90;;;;;;5123476;27;20461;-77
2020/12/29 09:55:13;;;;;;;29.53;26.03;;;2.70;99.90;;;;;;5124663;27;20463;-78
2020/12/29 09:57:39;;;;;;;38.10;24.63;;;2.70;99.90;;;;;;5123255;27;20459;-77
2020/12/29 10:00:07;;;;;;;46.20;31.23;;;2.80;99.90;;;;;;5123157;27;20489;-75
2020/12/29 10:02:33;;;;;;;41.90;30.93;;;2.90;99.90;;;;;;5123629;27;20497;-79
2020/12/29 10:05:00;;;;;;;32.00;26.07;;;2.90;99.90;;;;;;5120651;27;20460;-79
2020/12/29 10:07:27;;;;;;;38.73;27.70;;;3.00;99.90;;;;;;5123717;27;20461;-80
2020/12/29 10:09:53;;;;;;;41.33;30.73;;;3.00;99.90;;;;;;5121169;27;20466;-76
2020/12/29 10:12:21;;;;;;;47.03;33.50;;;3.10;99.90;;;;;;5127154;27;21072;-77
2020/12/29 10:14:47;;;;;;;35.67;28.47;;;3.10;99.90;;;;;;5124871;27;20460;-74
2020/12/29 10:17:13;;;;;;;45.37;33.50;;;3.20;99.90;;;;;;5123603;27;21090;-76
2020/12/29 10:19:42;;;;;;;37.77;31.00;;;3.20;99.90;;;;;;5122673;27;20491;-76
2020/12/29 10:22:09;;;;;;;45.30;32.40;;;3.20;99.90;;;;;;5125383;27;20457;-78
2020/12/29 10:24:36;;;;;;;36.50;27.67;;;3.20;99.90;;;;;;5119699;27;20978;-75
2020/12/29 10:27:02;;;;;;;49.77;31.33;;;3.30;99.90;;;;;;5118223;27;20459;-77
2020/12/29 10:29:29;;;;;;;56.73;33.57;;;3.40;99.90;;;;;;5119119;27;20452;-80
2020/12/29 10:31:55;;;;;;;47.30;34.00;;;3.40;99.90;;;;;;5128007;27;20753;-76
2020/12/29 10:34:22;;;;;;;40.33;31.27;;;3.50;99.90;;;;;;5120256;27;20452;-77
2020/12/29 10:36:48;;;;;;;60.53;35.30;;;3.50;99.90;;;;;;5125368;27;20512;-78
2020/12/29 10:39:15;;;;;;;36.20;28.93;;;3.60;99.90;;;;;;5121000;27;20553;-75
2020/12/29 10:41:42;;;;;;;42.53;26.83;;;3.60;99.90;;;;;;5119994;27;20532;-78
2020/12/29 10:44:09;;;;;;;42.57;30.00;;;3.60;99.90;;;;;;5119213;27;20461;-79
2020/12/29 10:46:38;;;;;;;50.93;36.03;;;3.70;99.90;;;;;;5123684;27;20471;-78
2020/12/29 10:49:04;;;;;;;54.10;32.70;;;3.70;99.90;;;;;;5124443;27;20453;-77
2020/12/29 10:51:31;;;;;;;48.57;33.20;;;3.80;99.90;;;;;;5121978;27;20543;-76
2020/12/29 10:53:57;;;;;;;48.80;32.67;;;3.80;99.90;;;;;;5120990;27;20510;-77
2020/12/29 10:56:25;;;;;;;49.70;31.70;;;3.90;99.90;;;;;;5121644;27;20465;-79
2020/12/29 10:58:52;;;;;;;40.17;29.37;;;3.90;99.90;;;;;;5118633;27;20464;-78
2020/12/29 11:01:24;;;;;;;40.03;31.53;;;3.80;99.90;;;;;;5124524;27;20464;-79
2020/12/29 11:03:50;;;;;;;42.40;31.90;;;3.90;99.90;;;;;;5115770;27;20452;-80
2020/12/29 11:06:19;;;;;;;32.93;27.07;;;4.00;99.90;;;;;;5122229;27;20455;-76
2020/12/29 11:08:46;;;;;;;46.30;31.63;;;4.10;99.90;;;;;;5121783;27;20458;-77
2020/12/29 11:11:13;;;;;;;42.80;29.90;;;4.20;99.90;;;;;;5123315;27;20493;-78
2020/12/29 11:13:41;;;;;;;42.90;31.00;;;4.20;99.90;;;;;;5121447;27;20510;-78
2020/12/29 11:16:12;;;;;;;35.80;26.20;;;4.40;99.90;;;;;;5122648;27;20466;-74
2020/12/29 11:18:39;;;;;;;36.40;29.03;;;4.40;99.90;;;;;;5117344;27;20468;-75
2020/12/29 11:21:06;;;;;;;42.30;29.70;;;4.40;99.90;;;;;;5121336;27;20560;-74
2020/12/29 11:23:33;;;;;;;42.80;31.17;;;4.50;99.90;;;;;;5123366;27;20471;-79
2020/12/29 11:25:59;;;;;;;28.97;24.27;;;4.70;99.90;;;;;;5119624;27;20452;-76
2020/12/29 11:28:26;;;;;;;38.07;29.97;;;4.70;99.90;;;;;;5121095;27;20804;-79
2020/12/29 11:30:53;;;;;;;37.03;29.70;;;4.80;99.90;;;;;;5125226;27;20464;-78
2020/12/29 11:33:19;;;;;;;30.30;25.37;;;4.90;99.90;;;;;;5120213;27;20473;-79
2020/12/29 11:35:47;;;;;;;36.20;26.57;;;4.80;99.90;;;;;;5119085;27;20514;-76
2020/12/29 11:38:15;;;;;;;30.03;23.73;;;4.90;99.90;;;;;;5123548;27;20484;-79
2020/12/29 11:40:41;;;;;;;30.47;24.23;;;5.00;99.90;;;;;;5120456;27;20520;-77
2020/12/29 11:43:08;;;;;;;33.90;26.27;;;5.00;99.90;;;;;;5120673;27;20851;-79
2020/12/29 11:45:34;;;;;;;26.17;23.57;;;5.10;99.90;;;;;;5117396;27;20460;-77
2020/12/29 11:48:02;;;;;;;29.07;24.27;;;5.30;99.90;;;;;;5112969;28;20837;-77
2020/12/29 11:50:28;;;;;;;27.20;24.07;;;5.40;99.90;;;;;;5125767;28;20455;-80
2020/12/29 11:52:55;;;;;;;26.50;23.77;;;5.40;99.90;;;;;;5117175;28;20453;-80
2020/12/29 11:55:21;;;;;;;25.00;22.43;;;5.30;99.90;;;;;;5120014;28;20960;-78
2020/12/29 11:57:47;;;;;;;28.37;25.07;;;5.20;99.90;;;;;;5117709;28;20461;-79
2020/12/29 12:00:13;;;;;;;23.57;19.70;;;5.30;99.90;;;;;;5116024;27;20480;-77
2020/12/29 12:02:40;;;;;;;29.10;23.40;;;5.30;99.90;;;;;;5124450;28;20795;-76
2020/12/29 12:05:08;;;;;;;24.97;22.50;;;5.40;99.90;;;;;;5117335;28;20461;-77
2020/12/29 12:07:34;;;;;;;23.97;21.63;;;5.70;99.90;;;;;;5117101;28;20468;-75
2020/12/29 12:10:02;;;;;;;21.97;19.83;;;5.80;99.90;;;;;;5120564;28;20538;-78
2020/12/29 12:12:29;;;;;;;29.50;21.07;;;6.00;99.90;;;;;;5126145;28;20461;-80
2020/12/29 12:14:55;;;;;;;27.50;23.07;;;5.90;99.90;;;;;;5123049;27;20465;-75
2020/12/29 12:17:21;;;;;;;20.70;18.80;;;5.90;99.90;;;;;;5119237;27;20463;-77
2020/12/29 12:19:47;;;;;;;22.57;20.37;;;5.90;99.90;;;;;;5116861;28;20487;-77
2020/12/29 12:22:14;;;;;;;21.20;19.20;;;5.80;99.90;;;;;;5123873;28;20456;-75
2020/12/29 12:24:41;;;;;;;20.30;18.53;;;5.70;99.90;;;;;;5114394;28;20459;-77
2020/12/29 12:27:07;;;;;;;25.60;20.83;;;5.70;99.90;;;;;;5125567;27;20456;-76
2020/12/29 12:29:33;;;;;;;21.93;19.80;;;5.60;99.90;;;;;;5125923;27;20525;-77
2020/12/29 12:32:00;;;;;;;20.43;18.57;;;5.40;99.90;;;;;;5122546;27;20465;-76
2020/12/29 12:34:28;;;;;;;25.07;18.77;;;5.30;99.90;;;;;;5122665;27;20517;-77
2020/12/29 12:36:57;;;;;;;24.00;21.70;;;5.30;99.90;;;;;;5125688;27;20465;-77